createdAt,value
2023-03-03T00:01:11.434Z,-1.83
2023-03-03T00:04:33.181Z,-1.87
2023-03-03T00:07:12.843Z,-1.89
2023-03-03T00:09:45.325Z,-1.90
2023-03-03T00:12:31.488Z,-1.91
2023-03-03T00:19:23.343Z,-1.95
2023-03-03T00:26:56.725Z,-2.03
2023-03-03T00:52:01.889Z,-2.15
2023-03-03T00:54:34.261Z,-2.16
2023-03-03T00:57:06.752Z,-2.18
2023-03-03T00:59:46.107Z,-2.22
2023-03-03T01:02:18.789Z,-2.25
2023-03-03T01:04:58.263Z,-2.30
2023-03-03T01:07:30.718Z,-2.30
2023-03-03T01:10:11.826Z,-2.28
2023-03-03T01:12:58.587Z,-2.25
2023-03-03T01:15:45.304Z,-2.23
2023-03-03T01:22:50.007Z,-2.15
2023-03-03T01:25:22.540Z,-2.10
2023-03-03T01:32:27.374Z,-1.98
2023-03-03T01:39:51.410Z,-1.93
2023-03-03T01:42:30.836Z,-1.92
2023-03-03T01:50:34.625Z,-1.92
2023-03-03T01:57:40.613Z,-2.02
2023-03-03T02:09:28.284Z,-2.00
2023-03-03T02:16:12.514Z,-1.96
2023-03-03T02:18:45.509Z,-1.95
2023-03-03T02:30:52.743Z,-1.81
2023-03-03T02:33:46.782Z,-1.75
2023-03-03T02:37:10.899Z,-1.69
2023-03-03T02:40:48.749Z,-1.60
2023-03-03T02:52:22.157Z,-1.40
2023-03-03T02:59:45.120Z,-1.35
2023-03-03T03:02:47.101Z,-1.36
2023-03-03T03:07:11.913Z,-1.34
2023-03-03T03:09:55.017Z,-1.30
2023-03-03T03:12:27.647Z,-1.27
2023-03-03T03:15:10.132Z,-1.25
2023-03-03T03:18:32.246Z,-1.22
2023-03-03T03:21:51.869Z,-1.18
2023-03-03T03:29:57.458Z,-1.12
2023-03-03T03:32:34.814Z,-1.09
2023-03-03T03:35:08.440Z,-1.06
2023-03-03T03:42:10.465Z,-0.95
2023-03-03T03:44:43.815Z,-0.89
2023-03-03T03:51:52.314Z,-0.79
2023-03-03T03:55:08.939Z,-0.71
2023-03-03T04:02:28.464Z,-0.58
2023-03-03T04:09:37.326Z,-0.43
2023-03-03T04:17:01.323Z,-0.34
2023-03-03T04:19:33.939Z,-0.29
2023-03-03T04:22:48.876Z,-0.24
2023-03-03T04:25:30.170Z,-0.23
2023-03-03T04:28:05.498Z,-0.18
2023-03-03T04:31:34.309Z,-0.12
2023-03-03T04:34:07.407Z,-0.08
2023-03-03T04:36:47.295Z,-0.04
2023-03-03T04:44:36.078Z,0.09
2023-03-03T04:47:15.245Z,0.09
2023-03-03T04:50:16.641Z,0.12
2023-03-03T04:58:27.274Z,0.19
2023-03-03T05:01:25.222Z,0.20
2023-03-03T05:04:09.741Z,0.21
2023-03-03T05:11:34.880Z,0.17
2023-03-03T05:15:12.647Z,0.12
2023-03-03T05:17:53.604Z,0.10
2023-03-03T05:21:14.959Z,0.05
2023-03-03T05:23:49.883Z,0.04
2023-03-03T05:26:22.376Z,0.04
2023-03-03T05:28:57.921Z,0.06
2023-03-03T05:36:32.728Z,0.10
2023-03-03T05:39:05.520Z,0.11
2023-03-03T05:41:44.355Z,0.13
2023-03-03T05:49:17.738Z,0.21
2023-03-03T05:51:56.427Z,0.20
2023-03-03T05:54:29.000Z,0.19
2023-03-03T05:57:38.241Z,0.24
2023-03-03T06:00:36.787Z,0.31
2023-03-03T06:04:01.113Z,0.34
2023-03-03T06:07:24.981Z,0.34
2023-03-03T06:10:56.207Z,0.39
2023-03-03T06:13:35.288Z,0.40
2023-03-03T06:16:41.701Z,0.42
2023-03-03T06:19:17.196Z,0.45
2023-03-03T06:22:42.395Z,0.47
2023-03-03T06:29:42.318Z,0.51
2023-03-03T06:32:15.471Z,0.53
2023-03-03T06:38:59.729Z,0.55
2023-03-03T06:54:31.239Z,0.59
2023-03-03T06:57:35.273Z,0.60
2023-03-03T07:00:34.563Z,0.62
2023-03-03T07:07:58.953Z,0.61
2023-03-03T07:10:32.495Z,0.61
2023-03-03T07:13:19.267Z,0.63
2023-03-03T07:15:53.692Z,0.63
2023-03-03T07:19:19.112Z,0.61
2023-03-03T07:21:54.148Z,0.56
2023-03-03T07:37:44.817Z,0.44
2023-03-03T07:41:40.934Z,0.45
2023-03-03T07:48:41.925Z,0.50
2023-03-03T07:51:45.466Z,0.55
2023-03-03T07:58:57.363Z,0.57
2023-03-03T08:11:20.633Z,0.52
2023-03-03T08:13:52.874Z,0.45
2023-03-03T08:17:05.653Z,0.44
2023-03-03T08:19:37.992Z,0.46
2023-03-03T08:22:57.671Z,0.48
2023-03-03T08:30:34.493Z,0.57
2023-03-03T08:33:30.656Z,0.62
2023-03-03T08:36:03.232Z,0.65
2023-03-03T08:38:46.682Z,0.67
2023-03-03T08:41:19.391Z,0.66
2023-03-03T08:43:52.144Z,0.68
2023-03-03T08:46:50.812Z,0.67
2023-03-03T08:49:54.552Z,0.65
2023-03-03T08:52:35.374Z,0.64
2023-03-03T08:55:37.662Z,0.64
2023-03-03T08:58:10.192Z,0.65
2023-03-03T09:00:42.660Z,0.71
2023-03-03T09:07:22.152Z,0.70
2023-03-03T09:14:15.263Z,0.73
2023-03-03T09:25:42.347Z,0.84
2023-03-03T09:32:50.122Z,1.08
2023-03-03T09:35:42.504Z,1.14
2023-03-03T09:52:00.777Z,1.22
2023-03-03T10:03:52.813Z,1.28
2023-03-03T10:07:37.554Z,1.32
2023-03-03T10:11:08.952Z,1.40
2023-03-03T10:31:05.552Z,1.32
2023-03-03T10:42:17.779Z,1.85
2023-03-03T11:02:42.801Z,2.18
2023-03-03T11:09:55.310Z,2.33
2023-03-03T11:12:41.367Z,2.26
2023-03-03T11:15:57.609Z,2.22
2023-03-03T11:29:04.827Z,2.49
2023-03-03T11:49:29.459Z,2.72
2023-03-03T11:56:17.593Z,2.70
2023-03-03T12:16:56.656Z,2.80
2023-03-03T12:39:45.884Z,2.46
2023-03-03T13:19:16.158Z,2.29
2023-03-03T13:26:24.795Z,2.30
2023-03-03T13:34:07.104Z,2.22
2023-03-03T13:36:54.143Z,2.19
2023-03-03T13:48:53.115Z,2.01
2023-03-03T13:51:45.431Z,2.00
2023-03-03T13:59:19.081Z,2.04
2023-03-03T14:23:20.187Z,2.03
2023-03-03T14:26:47.570Z,2.08
2023-03-03T14:29:34.067Z,2.12
2023-03-03T14:32:43.099Z,2.12
2023-03-03T14:35:22.119Z,2.06
2023-03-03T14:38:02.338Z,2.03
2023-03-03T14:40:44.038Z,2.04
2023-03-03T14:43:30.685Z,2.07
2023-03-03T14:46:42.236Z,2.08
2023-03-03T14:49:32.761Z,2.04
2023-03-03T14:52:12.527Z,2.01
2023-03-03T14:54:47.477Z,2.03
2023-03-03T14:57:21.365Z,2.04
2023-03-03T15:00:03.186Z,2.03
2023-03-03T15:02:38.931Z,2.00
2023-03-03T15:05:24.838Z,2.02
2023-03-03T15:07:59.347Z,2.01
2023-03-03T15:14:43.996Z,1.89
2023-03-03T15:28:51.792Z,1.88
2023-03-03T15:32:07.628Z,1.91
2023-03-03T15:34:45.878Z,1.90
2023-03-03T15:37:43.695Z,1.86
2023-03-03T15:40:27.252Z,1.80
2023-03-03T15:43:10.677Z,1.74
2023-03-03T15:45:52.745Z,1.72
2023-03-03T15:48:47.236Z,1.70
2023-03-03T15:51:32.533Z,1.66
2023-03-03T15:54:29.774Z,1.64
2023-03-03T15:57:06.294Z,1.63
2023-03-03T16:00:04.157Z,1.60
2023-03-03T16:02:52.026Z,1.57
2023-03-03T16:05:46.000Z,1.57
2023-03-03T16:08:24.526Z,1.57
2023-03-03T16:19:34.635Z,1.46
2023-03-03T16:22:42.243Z,1.46
2023-03-03T16:25:29.471Z,1.46
2023-03-03T16:28:07.659Z,1.45
2023-03-03T16:30:48.284Z,1.46
2023-03-03T16:33:22.926Z,1.45
2023-03-03T16:36:11.335Z,1.44
2023-03-03T16:38:46.780Z,1.42
2023-03-03T16:41:24.914Z,1.43
2023-03-03T16:44:13.642Z,1.44
2023-03-03T16:46:52.194Z,1.49
2023-03-03T16:49:30.835Z,1.53
2023-03-03T16:52:09.318Z,1.53
2023-03-03T16:54:54.536Z,1.53
2023-03-03T16:57:35.715Z,1.52
2023-03-03T17:00:13.983Z,1.51
2023-03-03T17:03:10.560Z,1.48
2023-03-03T17:05:51.460Z,1.42
2023-03-03T17:08:42.946Z,1.38
2023-03-03T17:11:35.080Z,1.34
2023-03-03T17:14:25.362Z,1.36
2023-03-03T17:17:01.581Z,1.35
2023-03-03T17:19:58.674Z,1.34
2023-03-03T17:22:42.739Z,1.32
2023-03-03T17:25:23.072Z,1.31
2023-03-03T17:28:09.767Z,1.32
2023-03-03T17:30:49.837Z,1.28
2023-03-03T17:33:55.082Z,1.24
2023-03-03T17:36:45.594Z,1.25
2023-03-03T17:39:42.571Z,1.27
2023-03-03T17:42:24.633Z,1.30
2023-03-03T17:45:05.884Z,1.32
2023-03-03T17:47:49.033Z,1.36
2023-03-03T17:50:53.229Z,1.38
2023-03-03T17:53:44.553Z,1.37
2023-03-03T17:56:22.663Z,1.35
2023-03-03T17:59:27.457Z,1.32
2023-03-03T18:02:30.512Z,1.32
2023-03-03T18:05:30.108Z,1.31
2023-03-03T18:08:20.934Z,1.25
2023-03-03T18:11:24.779Z,1.19
2023-03-03T18:14:37.054Z,1.17
2023-03-03T18:17:42.496Z,1.17
2023-03-03T18:20:43.116Z,1.15
2023-03-03T18:23:45.431Z,1.16
2023-03-03T18:26:37.223Z,1.14
2023-03-03T18:29:21.857Z,1.13
2023-03-03T18:32:06.267Z,1.12
2023-03-03T18:34:41.224Z,1.09
2023-03-03T18:37:40.486Z,1.10
2023-03-03T18:40:35.912Z,1.10
2023-03-03T18:43:49.544Z,1.09
2023-03-03T18:46:54.836Z,1.11
2023-03-03T18:50:06.759Z,1.09
2023-03-03T18:52:40.356Z,1.04
2023-03-03T18:55:27.841Z,1.01
2023-03-03T18:58:34.102Z,1.00
2023-03-03T19:01:43.026Z,0.98
2023-03-03T19:04:27.043Z,0.96
2023-03-03T19:07:27.686Z,0.95
2023-03-03T19:10:01.676Z,0.96
2023-03-03T19:12:57.915Z,0.98
2023-03-03T19:15:47.560Z,0.96
2023-03-03T19:18:23.894Z,0.96
2023-03-03T19:21:11.830Z,0.97
2023-03-03T19:24:01.005Z,0.99
2023-03-03T19:27:11.735Z,1.01
2023-03-03T19:29:59.674Z,1.03
2023-03-03T19:32:47.491Z,1.03
2023-03-03T19:35:29.877Z,1.03
2023-03-03T19:38:21.312Z,1.05
2023-03-03T19:41:27.883Z,1.06
2023-03-03T19:44:08.981Z,1.03
2023-03-03T19:46:56.432Z,0.97
2023-03-03T19:49:56.056Z,0.91
2023-03-03T19:52:44.270Z,0.92
2023-03-03T19:55:34.112Z,0.91
2023-03-03T19:58:29.475Z,0.88
2023-03-03T20:01:15.815Z,0.86
2023-03-03T20:07:58.576Z,0.83
2023-03-03T20:33:54.028Z,0.63
2023-03-03T20:50:30.551Z,0.61
2023-03-03T20:53:45.221Z,0.64
2023-03-03T21:12:35.653Z,0.69
2023-03-03T21:24:19.858Z,0.60
2023-03-03T21:36:02.291Z,0.53
2023-03-03T21:47:22.943Z,0.48
2023-03-03T21:50:46.666Z,0.47
2023-03-03T21:58:57.156Z,0.45
2023-03-03T22:01:29.519Z,0.38
2023-03-03T22:04:01.937Z,0.37
2023-03-03T22:07:28.743Z,0.37
2023-03-03T22:10:03.319Z,0.37
2023-03-03T22:18:05.456Z,0.37
2023-03-03T22:21:33.111Z,0.36
2023-03-03T22:28:55.775Z,0.38
2023-03-03T22:32:12.350Z,0.38
2023-03-03T22:35:18.583Z,0.38
2023-03-03T22:37:51.040Z,0.41
2023-03-03T22:40:23.474Z,0.41
2023-03-03T22:43:02.669Z,0.44
2023-03-03T22:45:35.120Z,0.45
2023-03-03T22:48:14.089Z,0.43
2023-03-03T22:50:47.604Z,0.41
2023-03-03T22:53:47.023Z,0.42
2023-03-03T22:56:19.350Z,0.40
2023-03-03T23:09:01.333Z,0.21
2023-03-03T23:15:24.953Z,0.21
2023-03-03T23:18:23.555Z,0.22
2023-03-03T23:21:02.791Z,0.20
2023-03-03T23:23:35.303Z,0.19
2023-03-03T23:26:43.784Z,0.21
2023-03-03T23:29:59.112Z,0.23
2023-03-03T23:33:03.744Z,0.23
2023-03-03T23:44:58.758Z,0.17
2023-03-03T23:47:31.659Z,0.15
2023-03-03T23:50:13.955Z,0.16
2023-03-03T23:53:36.638Z,0.15
2023-03-03T23:56:20.243Z,0.14
2023-03-03T23:59:18.691Z,0.13
